createdAt,value
2019-04-11T00:00:41.786Z,63.88
2019-04-11T00:03:45.950Z,63.89
2019-04-11T00:06:49.904Z,63.87
2019-04-11T00:09:54.652Z,63.82
2019-04-11T00:12:59.086Z,63.83
2019-04-11T00:16:02.915Z,63.83
2019-04-11T00:19:07.322Z,63.87
2019-04-11T00:22:11.160Z,63.89
2019-04-11T00:25:15.663Z,63.90
2019-04-11T00:28:19.424Z,63.93
2019-04-11T00:31:23.324Z,63.97
2019-04-11T00:34:26.997Z,63.98
2019-04-11T00:37:30.616Z,63.99
2019-04-11T00:40:35.354Z,64.06
2019-04-11T00:43:42.089Z,64.05
2019-04-11T00:46:44.662Z,63.99
2019-04-11T00:49:48.511Z,63.99
2019-04-11T00:52:52.082Z,64.02
2019-04-11T00:55:55.820Z,64.07
2019-04-11T00:59:00.251Z,63.99
2019-04-11T01:02:05.148Z,63.98
2019-04-11T01:05:09.600Z,64.00
2019-04-11T01:08:13.718Z,64.09
2019-04-11T01:11:17.588Z,64.16
2019-04-11T01:14:21.613Z,64.15
2019-04-11T01:17:25.443Z,64.17
2019-04-11T01:20:29.419Z,64.16
2019-04-11T01:23:33.273Z,64.16
2019-04-11T01:26:37.229Z,64.16
2019-04-11T01:29:41.886Z,64.22
2019-04-11T01:32:45.047Z,64.23
2019-04-11T01:35:49.826Z,64.20
2019-04-11T01:39:12.659Z,64.24
2019-04-11T01:42:17.679Z,64.25
2019-04-11T01:45:23.274Z,64.23
2019-04-11T01:48:28.558Z,64.20
2019-04-11T01:51:32.199Z,64.25
2019-04-11T01:54:35.811Z,64.21
2019-04-11T01:57:40.273Z,64.24
2019-04-11T02:00:48.669Z,64.24
2019-04-11T02:03:55.211Z,64.19
2019-04-11T02:06:59.048Z,64.22
2019-04-11T02:10:02.812Z,64.24
2019-04-11T02:13:06.394Z,64.27
2019-04-11T02:16:10.613Z,64.27
2019-04-11T02:19:14.490Z,64.42
2019-04-11T02:22:22.578Z,64.44
2019-04-11T02:25:33.792Z,64.44
2019-04-11T02:28:37.414Z,64.51
2019-04-11T02:31:42.384Z,64.52
2019-04-11T02:34:48.061Z,64.56
2019-04-11T02:37:52.103Z,64.51
2019-04-11T02:40:57.815Z,64.56
2019-04-11T02:44:01.637Z,64.54
2019-04-11T02:47:11.548Z,64.55
2019-04-11T02:50:14.942Z,64.57
2019-04-11T02:53:17.580Z,64.61
2019-04-11T02:56:21.418Z,64.56
2019-04-11T02:59:25.428Z,64.57
2019-04-11T03:02:30.790Z,64.54
2019-04-11T03:05:36.795Z,64.67
2019-04-11T03:08:41.129Z,64.61
2019-04-11T03:11:47.233Z,64.61
2019-04-11T03:15:12.966Z,64.63
2019-04-11T03:18:01.788Z,64.61
2019-04-11T03:21:07.168Z,64.62
2019-04-11T03:24:10.336Z,64.60
2019-04-11T03:27:13.030Z,64.68
2019-04-11T03:30:23.835Z,64.77
2019-04-11T03:34:16.221Z,64.93
2019-04-11T03:39:56.869Z,65.05
2019-04-11T03:42:57.063Z,65.21
2019-04-11T03:46:03.778Z,65.17
2019-04-11T03:48:59.994Z,65.30
2019-04-11T03:51:55.159Z,65.12
2019-04-11T03:55:00.516Z,65.16
2019-04-11T03:58:06.199Z,65.15
2019-04-11T04:01:11.568Z,65.22
2019-04-11T04:04:19.331Z,65.25
2019-04-11T04:07:21.460Z,65.28
2019-04-11T04:10:27.822Z,65.28
2019-04-11T04:13:32.153Z,65.27
2019-04-11T04:16:49.864Z,65.26
2019-04-11T04:19:59.692Z,65.33
2019-04-11T04:23:10.197Z,65.38
2019-04-11T04:26:14.681Z,65.36
2019-04-11T04:29:17.981Z,65.44
2019-04-11T04:32:23.689Z,65.43
2019-04-11T04:35:28.438Z,65.49
2019-04-11T04:38:33.763Z,65.53
2019-04-11T04:41:44.054Z,65.47
2019-04-11T04:44:45.158Z,65.57
2019-04-11T04:47:56.021Z,65.47
2019-04-11T04:50:56.834Z,65.46
2019-04-11T04:54:00.092Z,65.47
2019-04-11T04:57:05.022Z,65.56
2019-04-11T05:00:09.372Z,65.58
2019-04-11T05:03:13.576Z,65.59
2019-04-11T05:06:18.601Z,65.67
2019-04-11T05:09:23.530Z,65.64
2019-04-11T05:12:28.155Z,65.69
2019-04-11T05:15:32.436Z,65.69
2019-04-11T05:18:36.484Z,65.79
2019-04-11T05:21:41.390Z,65.71
2019-04-11T05:24:45.391Z,65.69
2019-04-11T05:27:49.663Z,65.72
2019-04-11T05:30:53.490Z,65.75
2019-04-11T05:33:57.074Z,65.77
2019-04-11T05:37:01.907Z,65.78
2019-04-11T05:40:07.253Z,65.78
2019-04-11T05:43:11.477Z,65.78
2019-04-11T05:46:29.968Z,65.70
2019-04-11T05:49:37.286Z,65.59
2019-04-11T05:52:40.243Z,65.46
2019-04-11T05:55:45.853Z,65.40
2019-04-11T05:58:51.511Z,65.33
2019-04-11T06:02:04.867Z,65.25
2019-04-11T06:05:15.668Z,65.31
2019-04-11T06:08:24.120Z,65.31
2019-04-11T06:11:41.196Z,65.25
2019-04-11T06:14:47.168Z,65.30
2019-04-11T06:17:51.862Z,65.46
2019-04-11T06:21:03.976Z,65.47
2019-04-11T06:24:24.257Z,65.49
2019-04-11T06:27:35.616Z,65.62
2019-04-11T06:30:51.364Z,65.53
2019-04-11T06:33:56.673Z,65.57
2019-04-11T06:37:01.889Z,65.52
2019-04-11T06:40:24.870Z,65.45
2019-04-11T06:43:34.205Z,65.35
2019-04-11T06:46:51.704Z,65.46
2019-04-11T06:49:58.603Z,65.44
2019-04-11T06:53:02.520Z,65.33
2019-04-11T06:56:25.369Z,65.30
2019-04-11T06:59:34.470Z,65.24
2019-04-11T07:02:40.750Z,65.41
2019-04-11T07:05:44.818Z,65.37
2019-04-11T07:08:56.973Z,65.42
2019-04-11T07:12:13.977Z,65.61
2019-04-11T07:15:19.476Z,65.28
2019-04-11T07:18:38.269Z,65.19
2019-04-11T07:21:42.198Z,65.11
2019-04-11T07:24:47.765Z,65.11
2019-04-11T07:28:10.056Z,65.23
2019-04-11T07:31:21.826Z,65.30
2019-04-11T07:34:42.055Z,65.36
2019-04-11T07:37:47.424Z,65.36
2019-04-11T07:40:54.518Z,65.28
2019-04-11T07:44:00.686Z,65.27
2019-04-11T07:47:17.061Z,65.33
2019-04-11T07:50:16.762Z,65.36
2019-04-11T07:53:21.724Z,65.36
2019-04-11T07:56:30.172Z,65.36
2019-04-11T07:59:35.376Z,65.37
2019-04-11T08:02:40.632Z,65.33
2019-04-11T08:05:46.692Z,65.37
2019-04-11T08:09:09.632Z,65.25
2019-04-11T08:12:15.196Z,65.09
2019-04-11T08:15:37.730Z,65.10
2019-04-11T08:18:59.318Z,65.20
2019-04-11T08:22:21.076Z,64.95
2019-04-11T08:25:26.314Z,64.88
2019-04-11T08:28:30.988Z,64.86
2019-04-11T08:31:53.844Z,64.82
2019-04-11T08:35:16.077Z,64.90
2019-04-11T08:38:22.417Z,65.06
2019-04-11T08:41:37.969Z,65.14
2019-04-11T08:44:41.935Z,65.16
2019-04-11T08:47:54.625Z,64.92
2019-04-11T08:51:08.040Z,65.16
2019-04-11T08:54:13.332Z,65.17
2019-04-11T08:57:18.505Z,65.60
2019-04-11T09:00:42.376Z,65.37
2019-04-11T09:04:02.049Z,65.73
2019-04-11T09:06:59.464Z,64.83
2019-04-11T09:10:11.581Z,64.46
2019-04-11T09:13:17.367Z,64.59
2019-04-11T09:16:34.899Z,63.49
2019-04-11T09:19:55.248Z,63.27
2019-04-11T09:22:59.758Z,63.39
2019-04-11T09:26:23.577Z,63.58
2019-04-11T09:29:28.799Z,62.46
2019-04-11T09:32:46.523Z,62.21
2019-04-11T09:35:51.745Z,61.37
2019-04-11T09:38:57.060Z,61.00
2019-04-11T09:42:03.034Z,62.40
2019-04-11T09:45:17.678Z,62.59
2019-04-11T09:48:42.096Z,62.37
2019-04-11T09:51:47.802Z,61.59
2019-04-11T09:54:53.096Z,61.84
2019-04-11T09:57:59.652Z,61.93
2019-04-11T10:01:18.183Z,61.47
2019-04-11T10:04:23.467Z,60.62
2019-04-11T10:07:37.683Z,60.87
2019-04-11T10:10:53.241Z,61.10
2019-04-11T10:14:01.766Z,59.97
2019-04-11T10:17:10.662Z,59.83
2019-04-11T10:20:16.282Z,60.95
2019-04-11T10:23:29.171Z,60.82
2019-04-11T10:26:38.236Z,60.10
2019-04-11T10:29:56.768Z,59.75
2019-04-11T10:33:05.273Z,59.42
2019-04-11T10:36:29.512Z,60.13
2019-04-11T10:39:35.546Z,59.30
2019-04-11T10:42:42.223Z,59.70
2019-04-11T10:45:56.980Z,60.33
2019-04-11T10:49:18.501Z,58.88
2019-04-11T10:52:26.703Z,59.21
2019-04-11T10:55:46.896Z,58.66
2019-04-11T10:58:53.309Z,56.27
2019-04-11T11:02:01.481Z,58.51
2019-04-11T11:05:07.264Z,58.16
2019-04-11T11:08:15.690Z,58.14
2019-04-11T11:11:24.221Z,58.40
2019-04-11T11:14:46.927Z,57.21
2019-04-11T11:18:39.885Z,56.99
2019-04-11T11:21:17.619Z,58.08
2019-04-11T11:24:32.067Z,58.41
2019-04-11T11:27:37.266Z,58.42
2019-04-11T11:30:58.799Z,58.30
2019-04-11T11:34:02.895Z,58.43
2019-04-11T11:37:20.752Z,58.82
2019-04-11T11:40:44.744Z,58.56
2019-04-11T11:43:51.582Z,58.78
2019-04-11T11:47:13.273Z,58.65
2019-04-11T11:50:21.601Z,58.38
2019-04-11T11:53:31.479Z,58.52
2019-04-11T11:56:38.077Z,57.53
2019-04-11T11:59:44.830Z,57.85
2019-04-11T12:02:56.967Z,56.83
2019-04-11T12:06:05.447Z,57.18
2019-04-11T12:09:27.050Z,55.89
2019-04-11T12:12:35.883Z,56.47
2019-04-11T12:15:57.428Z,56.64
2019-04-11T12:19:15.830Z,57.52
2019-04-11T12:22:18.124Z,57.49
2019-04-11T12:25:27.165Z,58.39
2019-04-11T12:28:37.216Z,58.65
2019-04-11T12:31:43.910Z,58.29
2019-04-11T12:35:04.367Z,58.10
2019-04-11T12:38:26.169Z,58.49
2019-04-11T12:41:37.507Z,58.46
2019-04-11T12:45:00.153Z,58.26
2019-04-11T12:48:04.970Z,58.31
2019-04-11T12:51:12.780Z,57.36
2019-04-11T12:54:18.201Z,57.68
2019-04-11T12:57:39.748Z,57.34
2019-04-11T13:01:01.302Z,57.62
2019-04-11T13:04:18.814Z,57.36
2019-04-11T13:07:24.183Z,56.91
2019-04-11T13:10:28.180Z,57.05
2019-04-11T13:13:33.461Z,56.92
2019-04-11T13:16:38.865Z,56.38
2019-04-11T13:20:05.006Z,56.88
2019-04-11T13:23:15.276Z,57.30
2019-04-11T13:26:26.500Z,56.66
2019-04-11T13:29:47.078Z,56.72
2019-04-11T13:32:52.398Z,57.64
2019-04-11T13:36:06.524Z,57.61
2019-04-11T13:39:10.230Z,57.94
2019-04-11T13:42:31.935Z,58.19
2019-04-11T13:45:37.289Z,58.12
2019-04-11T13:48:48.435Z,58.30
2019-04-11T13:52:10.089Z,58.51
2019-04-11T13:55:15.439Z,59.92
2019-04-11T13:58:33.111Z,60.55
2019-04-11T14:01:38.516Z,60.75
2019-04-11T14:04:49.034Z,60.64
2019-04-11T14:07:54.672Z,60.75
2019-04-11T14:11:11.124Z,61.72
2019-04-11T14:14:19.596Z,61.03
2019-04-11T14:17:41.965Z,60.88
2019-04-11T14:21:03.097Z,61.09
2019-04-11T14:24:11.396Z,61.52
2019-04-11T14:27:15.378Z,61.10
2019-04-11T14:30:26.577Z,61.23
2019-04-11T14:33:37.646Z,61.37
2019-04-11T14:36:46.241Z,61.45
2019-04-11T14:40:10.640Z,61.82
2019-04-11T14:43:16.857Z,61.44
2019-04-11T14:46:31.169Z,60.92
2019-04-11T14:49:35.296Z,60.73
2019-04-11T14:52:59.479Z,60.54
2019-04-11T14:56:05.234Z,60.31
2019-04-11T14:59:25.718Z,60.13
2019-04-11T15:02:31.121Z,59.92
2019-04-11T15:05:36.698Z,59.80
2019-04-11T15:08:42.316Z,59.51
2019-04-11T15:11:47.936Z,59.60
2019-04-11T15:14:59.444Z,59.73
2019-04-11T15:18:04.720Z,60.29
2019-04-11T15:21:19.595Z,60.77
2019-04-11T15:24:23.693Z,60.89
2019-04-11T15:27:32.018Z,62.22
2019-04-11T15:30:55.766Z,62.19
2019-04-11T15:34:17.252Z,62.41
2019-04-11T15:37:25.865Z,62.54
2019-04-11T15:40:31.132Z,63.24
2019-04-11T15:43:48.430Z,63.78
2019-04-11T15:46:53.302Z,63.52
2019-04-11T15:50:15.652Z,63.50
2019-04-11T15:53:41.881Z,63.52
2019-04-11T15:56:56.036Z,63.71
2019-04-11T16:00:13.798Z,63.82
2019-04-11T16:03:17.983Z,63.79
2019-04-11T16:06:39.520Z,63.65
2019-04-11T16:09:50.471Z,63.65
2019-04-11T16:12:55.842Z,63.73
2019-04-11T16:16:07.020Z,63.72
2019-04-11T16:19:27.466Z,63.93
2019-04-11T16:22:44.813Z,63.85
2019-04-11T16:25:50.052Z,63.80
2019-04-11T16:28:59.138Z,63.83
2019-04-11T16:32:05.278Z,63.92
2019-04-11T16:35:13.952Z,63.99
2019-04-11T16:38:19.615Z,63.84
2019-04-11T16:41:25.030Z,63.78
2019-04-11T16:44:48.874Z,63.68
2019-04-11T16:47:57.404Z,63.82
2019-04-11T16:51:01.910Z,63.73
2019-04-11T16:54:09.573Z,63.67
2019-04-11T16:57:13.547Z,63.58
2019-04-11T17:00:20.379Z,63.46
2019-04-11T17:03:25.054Z,63.39
2019-04-11T17:06:29.736Z,63.31
2019-04-11T17:09:40.973Z,63.19
2019-04-11T17:12:44.952Z,63.16
2019-04-11T17:15:49.049Z,63.15
2019-04-11T17:18:52.800Z,63.19
2019-04-11T17:21:56.489Z,63.16
2019-04-11T17:25:00.195Z,63.09
2019-04-11T17:28:04.162Z,63.02
2019-04-11T17:31:07.898Z,62.99
2019-04-11T17:34:11.644Z,63.31
2019-04-11T17:37:15.907Z,63.04
2019-04-11T17:40:19.626Z,63.07
2019-04-11T17:43:23.315Z,63.12
2019-04-11T17:46:27.525Z,63.05
2019-04-11T17:49:31.418Z,63.02
2019-04-11T17:52:36.102Z,62.89
2019-04-11T17:55:39.430Z,62.92
2019-04-11T17:58:44.654Z,62.95
2019-04-11T18:01:48.534Z,62.90
2019-04-11T18:04:53.124Z,63.19
2019-04-11T18:07:58.006Z,62.91
2019-04-11T18:11:01.759Z,63.01
2019-04-11T18:14:08.383Z,63.17
2019-04-11T18:17:12.232Z,63.20
2019-04-11T18:20:18.090Z,63.14
2019-04-11T18:23:21.758Z,63.21
2019-04-11T18:26:25.699Z,63.13
2019-04-11T18:29:29.486Z,63.11
2019-04-11T18:32:33.390Z,63.25
2019-04-11T18:35:37.090Z,63.43
2019-04-11T18:38:40.684Z,63.46
2019-04-11T18:41:44.430Z,63.44
2019-04-11T18:44:50.910Z,63.51
2019-04-11T18:47:55.060Z,63.54
2019-04-11T18:50:59.032Z,63.62
2019-04-11T18:54:02.807Z,63.73
2019-04-11T18:57:06.574Z,63.82
2019-04-11T19:00:12.639Z,63.84
2019-04-11T19:03:16.386Z,63.90
2019-04-11T19:06:27.760Z,63.86
2019-04-11T19:09:26.472Z,63.85
2019-04-11T19:12:30.128Z,63.84
2019-04-11T19:15:34.074Z,63.86
2019-04-11T19:18:37.668Z,64.24
2019-04-11T19:21:41.453Z,64.54
2019-04-11T19:24:45.378Z,65.08
2019-04-11T19:27:53.393Z,65.52
2019-04-11T19:30:56.859Z,66.51
2019-04-11T19:34:04.424Z,66.23
2019-04-11T19:37:05.814Z,66.66
2019-04-11T19:40:10.180Z,66.42
2019-04-11T19:43:14.093Z,66.47
2019-04-11T19:46:20.463Z,66.54
2019-04-11T19:49:23.740Z,66.55
2019-04-11T19:52:29.931Z,66.68
2019-04-11T19:55:37.624Z,66.97
2019-04-11T19:58:41.447Z,66.71
2019-04-11T20:01:45.188Z,66.80
2019-04-11T20:04:49.197Z,66.77
2019-04-11T20:07:53.034Z,66.84
2019-04-11T20:11:01.080Z,67.03
2019-04-11T20:14:02.905Z,67.03
2019-04-11T20:17:06.159Z,66.78
2019-04-11T20:20:09.924Z,66.86
2019-04-11T20:23:13.703Z,66.84
2019-04-11T20:26:19.942Z,66.79
2019-04-11T20:29:23.207Z,66.83
2019-04-11T20:32:27.091Z,66.82
2019-04-11T20:35:31.010Z,66.88
2019-04-11T20:38:36.383Z,66.77
2019-04-11T20:41:40.115Z,66.82
2019-04-11T20:44:44.036Z,66.83
2019-04-11T20:47:47.748Z,66.82
2019-04-11T20:50:51.794Z,66.83
2019-04-11T20:53:55.652Z,66.87
2019-04-11T20:56:59.372Z,66.86
2019-04-11T21:00:03.795Z,66.92
2019-04-11T21:03:14.058Z,66.93
2019-04-11T21:06:18.060Z,66.92
2019-04-11T21:09:22.144Z,66.96
2019-04-11T21:12:26.337Z,66.92
2019-04-11T21:15:30.234Z,67.00
2019-04-11T21:18:34.035Z,66.91
2019-04-11T21:21:37.774Z,66.91
2019-04-11T21:24:44.584Z,66.92
2019-04-11T21:27:48.456Z,66.95
2019-04-11T21:30:52.148Z,66.99
2019-04-11T21:33:55.804Z,67.03
2019-04-11T21:37:01.863Z,67.00
2019-04-11T21:43:37.648Z,67.09
2019-04-11T21:46:41.967Z,67.04
2019-04-11T21:49:45.876Z,67.07
2019-04-11T21:52:50.156Z,67.06
2019-04-11T21:55:54.010Z,67.13
2019-04-11T21:58:57.669Z,67.05
2019-04-11T22:02:01.458Z,67.10
2019-04-11T22:05:06.722Z,67.08
2019-04-11T22:08:10.706Z,67.04
2019-04-11T22:11:14.431Z,67.02
2019-04-11T22:14:18.198Z,67.02
2019-04-11T22:17:21.804Z,67.00
2019-04-11T22:20:25.457Z,67.03
2019-04-11T22:23:29.207Z,67.09
2019-04-11T22:26:32.932Z,67.09
2019-04-11T22:29:36.722Z,67.04
2019-04-11T22:32:41.907Z,67.10
2019-04-11T22:35:45.940Z,67.12
2019-04-11T22:38:49.657Z,67.14
2019-04-11T22:41:53.357Z,67.12
2019-04-11T22:44:56.989Z,67.10
2019-04-11T22:48:00.604Z,67.13
2019-04-11T22:51:04.242Z,67.21
2019-04-11T22:54:07.900Z,67.14
2019-04-11T22:57:12.132Z,67.14
2019-04-11T23:00:16.566Z,67.18
2019-04-11T23:03:21.793Z,67.10
2019-04-11T23:06:25.472Z,67.07
2019-04-11T23:09:29.194Z,67.07
2019-04-11T23:12:32.888Z,67.09
2019-04-11T23:15:36.613Z,67.07
2019-04-11T23:18:41.898Z,67.08
2019-04-11T23:21:45.906Z,67.10
2019-04-11T23:24:49.630Z,67.19
2019-04-11T23:27:53.226Z,67.19
2019-04-11T23:30:56.950Z,67.17
2019-04-11T23:34:00.593Z,67.60
2019-04-11T23:37:04.292Z,67.09
2019-04-11T23:40:07.958Z,66.97
2019-04-11T23:43:11.550Z,66.93
2019-04-11T23:46:15.312Z,66.88
2019-04-11T23:49:18.910Z,66.89
2019-04-11T23:52:26.407Z,67.03
2019-04-11T23:55:30.735Z,66.88
2019-04-11T23:58:34.004Z,66.80
